createdAt,value
2023-03-16T00:02:05.346Z,7.76
2023-03-16T00:04:37.718Z,7.76
2023-03-16T00:07:10.158Z,7.74
2023-03-16T00:09:41.416Z,7.73
2023-03-16T00:12:15.991Z,7.72
2023-03-16T00:14:49.372Z,7.69
2023-03-16T00:17:19.431Z,7.69
2023-03-16T00:19:54.846Z,7.70
2023-03-16T00:22:25.853Z,7.70
2023-03-16T00:24:53.160Z,7.72
2023-03-16T00:27:24.168Z,7.72
2023-03-16T00:29:56.466Z,7.73
2023-03-16T00:32:30.294Z,7.77
2023-03-16T00:34:57.788Z,7.77
2023-03-16T00:37:27.058Z,7.79
2023-03-16T00:39:58.229Z,7.80
2023-03-16T00:42:29.364Z,7.82
2023-03-16T00:44:59.755Z,7.86
2023-03-16T00:47:33.092Z,7.88
2023-03-16T00:50:01.414Z,7.89
2023-03-16T00:52:29.107Z,7.96
2023-03-16T00:54:57.171Z,7.97
2023-03-16T00:57:25.737Z,8.01
2023-03-16T00:59:52.717Z,8.05
2023-03-16T01:02:23.447Z,8.10
2023-03-16T01:04:52.755Z,8.13
2023-03-16T01:07:20.656Z,8.16
2023-03-16T01:09:48.035Z,8.20
2023-03-16T01:12:18.336Z,8.25
2023-03-16T01:14:46.316Z,8.29
2023-03-16T01:17:15.277Z,8.36
2023-03-16T01:19:42.806Z,8.41
2023-03-16T01:22:11.804Z,8.45
2023-03-16T01:24:40.673Z,8.49
2023-03-16T01:27:08.858Z,8.51
2023-03-16T01:29:36.349Z,8.55
2023-03-16T01:32:04.967Z,8.57
2023-03-16T01:34:33.160Z,8.59
2023-03-16T01:37:00.862Z,8.61
2023-03-16T01:39:28.148Z,8.62
2023-03-16T01:41:54.939Z,8.62
2023-03-16T01:44:32.526Z,8.63
2023-03-16T01:46:59.265Z,8.62
2023-03-16T01:49:37.940Z,8.61
2023-03-16T01:52:26.484Z,8.63
2023-03-16T01:55:02.682Z,8.64
2023-03-16T01:57:36.984Z,8.67
2023-03-16T02:00:21.172Z,8.69
2023-03-16T02:02:56.289Z,8.72
2023-03-16T02:05:44.438Z,8.73
2023-03-16T02:08:12.462Z,8.76
2023-03-16T02:10:41.030Z,8.80
2023-03-16T02:13:09.016Z,8.84
2023-03-16T02:15:36.138Z,8.87
2023-03-16T02:18:04.963Z,8.89
2023-03-16T02:20:50.484Z,8.92
2023-03-16T02:23:21.177Z,8.93
2023-03-16T02:26:16.179Z,8.99
2023-03-16T02:29:29.672Z,9.00
2023-03-16T02:31:59.015Z,8.97
2023-03-16T02:34:26.941Z,8.99
2023-03-16T02:36:54.827Z,9.03
2023-03-16T02:39:21.649Z,9.07
2023-03-16T02:41:48.456Z,9.12
2023-03-16T02:44:33.896Z,9.18
2023-03-16T02:47:07.747Z,9.18
2023-03-16T02:49:39.967Z,9.20
2023-03-16T02:52:08.518Z,9.23
2023-03-16T02:54:35.548Z,9.23
2023-03-16T02:57:02.732Z,9.24
2023-03-16T02:59:29.561Z,9.25
2023-03-16T03:01:56.274Z,9.28
2023-03-16T03:04:24.560Z,9.30
2023-03-16T03:06:52.134Z,9.32
2023-03-16T03:09:20.807Z,9.34
2023-03-16T03:11:47.656Z,9.36
2023-03-16T03:14:16.730Z,9.37
2023-03-16T03:16:46.520Z,9.36
2023-03-16T03:19:14.326Z,9.37
2023-03-16T03:21:41.367Z,9.40
2023-03-16T03:24:09.576Z,9.41
2023-03-16T03:26:38.123Z,9.44
2023-03-16T03:29:05.071Z,9.45
2023-03-16T03:31:31.848Z,9.48
2023-03-16T03:33:58.854Z,9.48
2023-03-16T03:36:25.604Z,9.48
2023-03-16T03:38:54.768Z,9.48
2023-03-16T03:41:22.346Z,9.48
2023-03-16T03:43:49.198Z,9.47
2023-03-16T03:46:16.117Z,9.47
2023-03-16T03:48:42.913Z,9.45
2023-03-16T03:51:09.752Z,9.45
2023-03-16T03:53:36.543Z,9.47
2023-03-16T03:56:03.338Z,9.47
2023-03-16T03:58:30.095Z,9.49
2023-03-16T04:00:56.802Z,9.51
2023-03-16T04:03:23.615Z,9.56
2023-03-16T04:05:50.539Z,9.60
2023-03-16T04:08:17.299Z,9.64
2023-03-16T04:10:44.660Z,9.68
2023-03-16T04:13:11.405Z,9.72
2023-03-16T04:15:38.757Z,9.75
2023-03-16T04:18:05.653Z,9.77
2023-03-16T04:20:32.556Z,9.82
2023-03-16T04:22:59.349Z,9.86
2023-03-16T04:25:27.616Z,9.90
2023-03-16T04:27:54.617Z,9.91
2023-03-16T04:30:23.436Z,9.90
2023-03-16T04:32:51.293Z,9.89
2023-03-16T04:35:18.997Z,9.90
2023-03-16T04:37:45.768Z,9.92
2023-03-16T04:40:16.104Z,9.93
2023-03-16T04:42:45.065Z,9.95
2023-03-16T04:45:13.904Z,9.96
2023-03-16T04:47:41.129Z,9.97
2023-03-16T04:50:10.463Z,10.00
2023-03-16T04:52:37.284Z,10.03
2023-03-16T04:55:04.672Z,10.06
2023-03-16T04:57:32.211Z,10.08
2023-03-16T04:59:58.963Z,10.11
2023-03-16T05:02:25.840Z,10.13
2023-03-16T05:04:52.882Z,10.18
2023-03-16T05:07:19.615Z,10.17
2023-03-16T05:09:46.431Z,10.19
2023-03-16T05:12:13.151Z,10.20
2023-03-16T05:14:39.939Z,10.20
2023-03-16T05:17:06.644Z,10.16
2023-03-16T05:19:33.624Z,10.16
2023-03-16T05:22:00.573Z,10.13
2023-03-16T05:24:27.336Z,10.14
2023-03-16T05:26:54.077Z,10.14
2023-03-16T05:29:20.894Z,10.16
2023-03-16T05:31:47.851Z,10.16
2023-03-16T05:34:15.069Z,10.14
2023-03-16T05:36:42.108Z,10.12
2023-03-16T05:39:09.028Z,10.12
2023-03-16T05:41:36.424Z,10.12
2023-03-16T05:44:04.496Z,10.10
2023-03-16T05:46:31.911Z,10.11
2023-03-16T05:48:59.220Z,10.11
2023-03-16T05:51:28.730Z,10.12
2023-03-16T05:53:58.984Z,10.13
2023-03-16T05:56:28.410Z,10.16
2023-03-16T05:58:56.719Z,10.19
2023-03-16T06:01:24.313Z,10.18
2023-03-16T06:03:52.117Z,10.20
2023-03-16T06:06:22.867Z,10.22
2023-03-16T06:08:49.974Z,10.23
2023-03-16T06:11:17.660Z,10.27
2023-03-16T06:13:44.413Z,10.31
2023-03-16T06:16:13.747Z,10.32
2023-03-16T06:18:41.217Z,10.34
2023-03-16T06:21:08.108Z,10.35
2023-03-16T06:23:35.115Z,10.37
2023-03-16T06:26:02.048Z,10.36
2023-03-16T06:28:28.944Z,10.39
2023-03-16T06:30:57.174Z,10.39
2023-03-16T06:33:25.236Z,10.38
2023-03-16T06:35:52.340Z,10.39
2023-03-16T06:38:19.714Z,10.39
2023-03-16T06:40:51.221Z,10.39
2023-03-16T06:43:17.986Z,10.42
2023-03-16T06:45:44.901Z,10.45
2023-03-16T06:48:11.695Z,10.47
2023-03-16T06:50:38.518Z,10.48
2023-03-16T06:53:06.498Z,10.49
2023-03-16T06:55:34.298Z,10.53
2023-03-16T06:58:05.061Z,10.56
2023-03-16T07:00:34.042Z,10.58
2023-03-16T07:03:01.976Z,10.61
2023-03-16T07:05:29.035Z,10.64
2023-03-16T07:07:55.775Z,10.69
2023-03-16T07:10:22.750Z,10.73
2023-03-16T07:12:50.269Z,10.76
2023-03-16T07:15:17.815Z,10.82
2023-03-16T07:17:44.654Z,10.82
2023-03-16T07:20:12.880Z,10.83
2023-03-16T07:22:41.726Z,10.84
2023-03-16T07:25:11.208Z,10.85
2023-03-16T07:27:38.847Z,10.89
2023-03-16T07:30:06.476Z,10.91
2023-03-16T07:32:33.370Z,10.96
2023-03-16T07:35:00.299Z,10.99
2023-03-16T07:37:28.117Z,11.03
2023-03-16T07:39:54.847Z,11.07
2023-03-16T07:42:22.667Z,11.12
2023-03-16T07:44:51.747Z,11.17
2023-03-16T07:47:19.371Z,11.20
2023-03-16T07:49:46.211Z,11.23
2023-03-16T07:52:13.711Z,11.26
2023-03-16T07:54:41.392Z,11.28
2023-03-16T07:57:09.302Z,11.33
2023-03-16T07:59:36.075Z,11.37
2023-03-16T08:02:03.763Z,11.42
2023-03-16T08:04:31.317Z,11.45
2023-03-16T08:07:00.327Z,11.46
2023-03-16T08:09:27.867Z,11.49
2023-03-16T08:11:54.618Z,11.51
2023-03-16T08:14:21.575Z,11.54
2023-03-16T08:16:48.307Z,11.57
2023-03-16T08:19:15.019Z,11.58
2023-03-16T08:21:59.794Z,11.61
2023-03-16T08:24:29.482Z,11.61
2023-03-16T08:26:57.509Z,11.64
2023-03-16T08:29:26.403Z,11.70
2023-03-16T08:31:57.535Z,11.77
2023-03-16T08:34:25.054Z,11.84
2023-03-16T08:36:51.826Z,11.94
2023-03-16T08:39:18.616Z,12.08
2023-03-16T08:41:46.937Z,12.19
2023-03-16T08:44:13.630Z,12.30
2023-03-16T08:46:40.717Z,12.42
2023-03-16T08:49:08.279Z,12.54
2023-03-16T08:51:35.068Z,12.68
2023-03-16T08:54:01.843Z,12.85
2023-03-16T08:56:30.416Z,13.01
2023-03-16T08:58:57.471Z,13.18
2023-03-16T09:01:25.599Z,13.34
2023-03-16T09:03:52.652Z,13.46
2023-03-16T09:06:19.977Z,13.55
2023-03-16T09:08:47.697Z,13.61
2023-03-16T09:11:18.733Z,13.71
2023-03-16T09:13:46.235Z,13.76
2023-03-16T09:16:15.795Z,13.81
2023-03-16T09:18:43.419Z,13.87
2023-03-16T09:21:13.710Z,13.96
2023-03-16T09:23:43.154Z,14.09
2023-03-16T09:26:12.405Z,14.20
2023-03-16T09:28:42.060Z,14.29
2023-03-16T09:31:15.312Z,14.36
2023-03-16T09:33:42.798Z,14.39
2023-03-16T09:36:11.476Z,14.44
2023-03-16T09:38:38.476Z,14.48
2023-03-16T09:41:41.862Z,14.62
2023-03-16T09:44:30.747Z,14.70
2023-03-16T09:47:03.292Z,14.89
2023-03-16T09:49:40.548Z,15.28
2023-03-16T09:52:22.592Z,15.80
2023-03-16T09:54:59.760Z,16.38
2023-03-16T09:57:34.720Z,17.00
2023-03-16T10:00:31.598Z,17.72
2023-03-16T10:03:06.909Z,18.31
2023-03-16T10:05:35.726Z,19.01
2023-03-16T10:08:24.616Z,19.75
2023-03-16T10:11:05.344Z,20.37
2023-03-16T10:13:53.788Z,20.83
2023-03-16T10:16:31.609Z,20.96
2023-03-16T10:19:42.009Z,20.82
2023-03-16T10:22:22.431Z,20.60
2023-03-16T10:25:25.483Z,20.30
2023-03-16T10:27:52.946Z,20.14
2023-03-16T10:30:22.606Z,20.13
2023-03-16T10:32:50.188Z,20.18
2023-03-16T10:35:22.985Z,20.21
2023-03-16T10:37:49.746Z,20.26
2023-03-16T10:40:16.724Z,20.26
2023-03-16T10:42:43.780Z,20.43
2023-03-16T10:45:34.992Z,20.77
2023-03-16T10:48:18.418Z,21.20
2023-03-16T10:50:54.103Z,21.70
2023-03-16T10:53:31.647Z,22.25
2023-03-16T10:56:02.155Z,22.75
2023-03-16T10:58:35.827Z,23.34
2023-03-16T11:01:03.415Z,23.82
2023-03-16T11:03:41.423Z,24.25
2023-03-16T11:06:35.436Z,24.61
2023-03-16T11:09:14.427Z,24.89
2023-03-16T11:11:49.518Z,25.16
2023-03-16T11:14:23.452Z,25.36
2023-03-16T11:17:11.033Z,25.46
2023-03-16T11:19:57.726Z,25.38
2023-03-16T11:22:26.718Z,25.30
2023-03-16T11:25:09.329Z,25.18
2023-03-16T11:27:54.402Z,25.09
2023-03-16T11:31:03.771Z,25.03
2023-03-16T11:33:35.052Z,24.99
2023-03-16T11:36:41.837Z,24.80
2023-03-16T11:39:32.206Z,24.57
2023-03-16T11:42:11.632Z,24.38
2023-03-16T11:45:00.155Z,24.22
2023-03-16T11:48:28.839Z,23.90
2023-03-16T11:51:26.193Z,23.70
2023-03-16T11:54:18.913Z,23.49
2023-03-16T11:57:00.393Z,23.34
2023-03-16T12:00:11.617Z,23.30
2023-03-16T12:03:17.610Z,23.35
2023-03-16T12:06:20.736Z,23.26
2023-03-16T12:09:27.305Z,23.12
2023-03-16T12:12:16.477Z,22.93
2023-03-16T12:15:24.680Z,22.65
2023-03-16T12:18:01.142Z,22.51
2023-03-16T12:20:39.530Z,22.46
2023-03-16T12:23:34.706Z,22.40
2023-03-16T12:26:04.457Z,22.36
2023-03-16T12:28:33.989Z,22.34
2023-03-16T12:31:27.718Z,22.28
2023-03-16T12:34:13.532Z,22.23
2023-03-16T12:37:17.207Z,22.02
2023-03-16T12:40:09.427Z,21.83
2023-03-16T12:43:27.373Z,21.63
2023-03-16T12:46:12.516Z,21.46
2023-03-16T12:48:54.445Z,21.36
2023-03-16T12:51:21.293Z,21.29
2023-03-16T12:53:51.956Z,21.22
2023-03-16T12:56:31.414Z,21.14
2023-03-16T12:59:10.860Z,21.01
2023-03-16T13:01:57.028Z,20.92
2023-03-16T13:04:50.489Z,20.87
2023-03-16T13:07:23.878Z,20.87
2023-03-16T13:10:10.884Z,20.96
2023-03-16T13:12:41.596Z,20.97
2023-03-16T13:15:21.432Z,21.01
2023-03-16T13:18:10.027Z,21.06
2023-03-16T13:21:01.775Z,21.09
2023-03-16T13:23:55.000Z,21.13
2023-03-16T13:26:37.393Z,21.20
2023-03-16T13:29:22.295Z,21.21
2023-03-16T13:31:51.370Z,21.26
2023-03-16T13:34:50.932Z,21.30
2023-03-16T13:37:21.117Z,21.38
2023-03-16T13:39:57.696Z,21.44
2023-03-16T13:42:31.411Z,21.48
2023-03-16T13:45:03.835Z,21.47
2023-03-16T13:47:31.422Z,21.44
2023-03-16T13:50:00.532Z,21.38
2023-03-16T13:52:35.137Z,21.33
2023-03-16T13:55:17.309Z,21.29
2023-03-16T13:57:46.371Z,21.33
2023-03-16T14:00:21.964Z,21.31
2023-03-16T14:02:55.478Z,21.24
2023-03-16T14:05:27.248Z,21.19
2023-03-16T14:07:56.788Z,21.12
2023-03-16T14:10:29.615Z,21.07
2023-03-16T14:13:06.498Z,21.03
2023-03-16T14:15:34.205Z,21.03
2023-03-16T14:18:21.289Z,20.95
2023-03-16T14:20:53.080Z,20.84
2023-03-16T14:23:38.108Z,20.73
2023-03-16T14:26:12.750Z,20.66
2023-03-16T14:28:40.215Z,20.57
2023-03-16T14:31:13.222Z,20.51
2023-03-16T14:33:45.981Z,20.51
2023-03-16T14:36:19.182Z,20.53
2023-03-16T14:38:48.395Z,20.51
2023-03-16T14:41:30.065Z,20.46
2023-03-16T14:44:03.026Z,20.39
2023-03-16T14:46:33.051Z,20.38
2023-03-16T14:49:20.054Z,20.37
2023-03-16T14:51:50.378Z,20.35
2023-03-16T14:54:22.303Z,20.32
2023-03-16T14:57:05.697Z,20.28
2023-03-16T14:59:33.698Z,20.22
2023-03-16T15:02:04.164Z,20.13
2023-03-16T15:04:36.211Z,20.07
2023-03-16T15:07:21.507Z,19.96
2023-03-16T15:09:50.578Z,19.85
2023-03-16T15:12:20.153Z,19.82
2023-03-16T15:15:06.402Z,19.80
2023-03-16T15:17:33.594Z,19.75
2023-03-16T15:20:02.165Z,19.70
2023-03-16T15:22:35.552Z,19.62
2023-03-16T15:25:16.954Z,19.54
2023-03-16T15:27:44.447Z,19.47
2023-03-16T15:30:32.059Z,19.38
2023-03-16T15:32:58.978Z,19.35
2023-03-16T15:35:25.841Z,19.31
2023-03-16T15:37:53.522Z,19.29
2023-03-16T15:40:26.854Z,19.26
2023-03-16T15:42:55.084Z,19.23
2023-03-16T15:45:23.807Z,19.23
2023-03-16T15:47:54.134Z,19.22
2023-03-16T15:50:24.900Z,19.21
2023-03-16T15:53:06.169Z,19.18
2023-03-16T15:55:46.609Z,19.14
2023-03-16T16:01:26.703Z,19.05
2023-03-16T16:03:56.451Z,18.99
2023-03-16T16:06:24.887Z,18.96
2023-03-16T16:08:52.806Z,18.91
2023-03-16T16:11:26.609Z,18.87
2023-03-16T16:13:58.431Z,18.82
2023-03-16T16:16:31.990Z,18.77
2023-03-16T16:19:00.548Z,18.72
2023-03-16T16:21:31.121Z,18.64
2023-03-16T16:23:59.210Z,18.57
2023-03-16T16:26:49.013Z,18.49
2023-03-16T16:29:24.140Z,18.36
2023-03-16T16:31:52.194Z,18.29
2023-03-16T16:34:24.304Z,18.24
2023-03-16T16:36:51.888Z,18.16
2023-03-16T16:39:18.866Z,18.11
2023-03-16T16:41:46.254Z,18.05
2023-03-16T16:44:27.621Z,17.97
2023-03-16T16:46:55.577Z,17.89
2023-03-16T16:49:30.692Z,17.81
2023-03-16T16:51:58.974Z,17.72
2023-03-16T16:54:30.577Z,17.66
2023-03-16T16:56:59.853Z,17.60
2023-03-16T16:59:33.192Z,17.57
2023-03-16T17:02:03.611Z,17.54
2023-03-16T17:04:30.993Z,17.48
2023-03-16T17:07:02.072Z,17.41
2023-03-16T17:09:30.703Z,17.32
2023-03-16T17:12:02.278Z,17.27
2023-03-16T17:14:31.408Z,17.19
2023-03-16T17:17:02.927Z,17.11
2023-03-16T17:19:30.612Z,17.03
2023-03-16T17:21:58.708Z,16.97
2023-03-16T17:24:26.039Z,16.90
2023-03-16T17:26:57.590Z,16.83
2023-03-16T17:29:33.075Z,16.75
2023-03-16T17:32:08.302Z,16.68
2023-03-16T17:34:36.172Z,16.57
2023-03-16T17:37:03.371Z,16.49
2023-03-16T17:39:34.148Z,16.42
2023-03-16T17:42:12.306Z,16.32
2023-03-16T17:44:51.896Z,16.23
2023-03-16T17:47:26.519Z,16.14
2023-03-16T17:49:55.129Z,16.07
2023-03-16T17:52:25.847Z,16.03
2023-03-16T17:54:54.241Z,15.97
2023-03-16T17:57:33.580Z,15.91
2023-03-16T18:00:04.759Z,16.30
2023-03-16T18:03:12.191Z,16.01
2023-03-16T18:05:40.421Z,15.82
2023-03-16T18:08:22.215Z,15.66
2023-03-16T18:10:54.183Z,15.55
2023-03-16T18:13:36.294Z,15.45
2023-03-16T18:16:05.727Z,15.38
2023-03-16T18:18:40.017Z,15.31
2023-03-16T18:21:08.711Z,15.24
2023-03-16T18:23:36.840Z,15.17
2023-03-16T18:26:04.085Z,15.09
2023-03-16T18:28:32.570Z,15.03
2023-03-16T18:31:03.683Z,14.96
2023-03-16T18:33:37.007Z,14.92
2023-03-16T18:36:08.087Z,14.86
2023-03-16T18:38:42.418Z,14.81
2023-03-16T18:41:28.519Z,14.72
2023-03-16T18:43:59.515Z,14.67
2023-03-16T18:46:36.963Z,14.62
2023-03-16T18:49:16.683Z,14.56
2023-03-16T18:51:49.279Z,14.52
2023-03-16T18:54:29.690Z,14.46
2023-03-16T18:57:01.088Z,14.41
2023-03-16T18:59:27.929Z,14.36
2023-03-16T19:01:54.817Z,14.34
2023-03-16T19:04:24.965Z,14.32
2023-03-16T19:06:54.513Z,14.29
2023-03-16T19:09:27.682Z,14.27
2023-03-16T19:11:54.488Z,14.22
2023-03-16T19:14:31.967Z,14.20
2023-03-16T19:16:58.889Z,14.15
2023-03-16T19:19:25.752Z,14.11
2023-03-16T19:21:57.197Z,14.09
2023-03-16T19:24:29.965Z,14.06
2023-03-16T19:26:57.432Z,14.06
2023-03-16T19:29:31.666Z,14.04
2023-03-16T19:31:59.211Z,14.04
2023-03-16T19:34:27.154Z,14.02
2023-03-16T19:36:53.923Z,14.01
2023-03-16T19:39:21.276Z,14.01
2023-03-16T19:41:56.382Z,14.01
2023-03-16T19:44:27.223Z,13.97
2023-03-16T19:46:55.044Z,13.93
2023-03-16T19:49:25.888Z,13.90
2023-03-16T19:51:55.776Z,13.85
2023-03-16T19:54:28.001Z,13.77
2023-03-16T19:56:59.783Z,13.71
2023-03-16T19:59:32.579Z,13.61
2023-03-16T20:01:59.884Z,13.55
2023-03-16T20:04:28.097Z,13.49
2023-03-16T20:06:54.995Z,13.43
2023-03-16T20:09:22.430Z,13.36
2023-03-16T20:11:50.142Z,13.31
2023-03-16T20:14:32.226Z,13.23
2023-03-16T20:17:00.218Z,13.16
2023-03-16T20:19:27.132Z,13.08
2023-03-16T20:21:53.885Z,13.05
2023-03-16T20:24:22.123Z,13.00
2023-03-16T20:26:51.437Z,12.97
2023-03-16T20:29:30.154Z,12.92
2023-03-16T20:31:57.457Z,12.90
2023-03-16T20:34:29.315Z,12.89
2023-03-16T20:36:56.747Z,12.87
2023-03-16T20:39:24.320Z,12.86
2023-03-16T20:41:52.455Z,12.85
2023-03-16T20:44:21.753Z,12.85
2023-03-16T20:46:48.591Z,12.83
2023-03-16T20:49:35.652Z,12.83
2023-03-16T20:52:03.840Z,12.79
2023-03-16T20:54:30.570Z,12.77
2023-03-16T20:56:57.371Z,12.74
2023-03-16T20:59:26.529Z,12.70
2023-03-16T21:01:55.479Z,12.64
2023-03-16T21:04:27.710Z,12.64
2023-03-16T21:06:56.638Z,12.64
2023-03-16T21:09:23.439Z,12.64
2023-03-16T21:11:50.309Z,12.64
2023-03-16T21:14:22.005Z,12.67
2023-03-16T21:16:49.705Z,12.63
2023-03-16T21:19:22.898Z,12.62
2023-03-16T21:21:50.689Z,12.61
2023-03-16T21:24:17.454Z,12.61
2023-03-16T21:26:45.251Z,12.61
2023-03-16T21:29:20.702Z,12.61
2023-03-16T21:31:48.389Z,12.62
2023-03-16T21:34:25.183Z,12.61
2023-03-16T21:36:52.298Z,12.60
2023-03-16T21:39:23.654Z,12.61
2023-03-16T21:41:50.716Z,12.60
2023-03-16T21:44:18.390Z,12.60
2023-03-16T21:46:47.193Z,12.60
2023-03-16T21:49:15.875Z,12.61
2023-03-16T21:51:43.280Z,12.63
2023-03-16T21:54:17.947Z,12.65
2023-03-16T21:56:45.499Z,12.64
2023-03-16T21:59:12.972Z,12.67
2023-03-16T22:01:58.383Z,12.70
2023-03-16T22:04:28.290Z,12.73
2023-03-16T22:06:55.233Z,12.77
2023-03-16T22:09:22.712Z,12.78
2023-03-16T22:11:49.790Z,12.78
2023-03-16T22:14:16.496Z,12.83
2023-03-16T22:16:43.729Z,12.85
2023-03-16T22:19:14.432Z,12.86
2023-03-16T22:21:44.689Z,12.90
2023-03-16T22:24:28.415Z,12.86
2023-03-16T22:26:57.088Z,12.85
2023-03-16T22:29:28.036Z,12.85
2023-03-16T22:32:06.214Z,12.86
2023-03-16T22:34:47.335Z,12.85
2023-03-16T22:37:28.757Z,12.83
2023-03-16T22:39:58.844Z,12.83
2023-03-16T22:42:37.365Z,12.81
2023-03-16T22:45:41.771Z,12.80
2023-03-16T22:48:23.374Z,12.74
2023-03-16T22:50:51.721Z,12.70
2023-03-16T22:53:46.119Z,12.65
2023-03-16T22:56:14.842Z,12.61
2023-03-16T22:58:54.774Z,12.61
2023-03-16T23:01:47.970Z,12.56
2023-03-16T23:04:33.472Z,12.51
2023-03-16T23:07:10.681Z,12.48
2023-03-16T23:09:39.133Z,12.46
2023-03-16T23:12:20.789Z,12.45
2023-03-16T23:14:51.504Z,12.44
2023-03-16T23:17:25.108Z,12.44
2023-03-16T23:19:56.053Z,12.41
2023-03-16T23:22:23.860Z,12.40
2023-03-16T23:25:00.286Z,12.39
2023-03-16T23:27:28.363Z,12.36
2023-03-16T23:29:56.556Z,12.36
2023-03-16T23:32:24.076Z,12.34
2023-03-16T23:34:51.947Z,12.33
2023-03-16T23:38:20.408Z,12.32
2023-03-16T23:40:48.416Z,12.25
2023-03-16T23:43:16.836Z,12.24
2023-03-16T23:45:47.614Z,12.24
2023-03-16T23:48:23.688Z,12.23
2023-03-16T23:50:58.772Z,12.21
2023-03-16T23:53:27.205Z,12.18
2023-03-16T23:55:53.950Z,12.18
2023-03-16T23:58:20.848Z,12.17
